createdAt,value
2022-09-25T00:02:09.811Z,19.15
2022-09-25T00:04:37.140Z,14.98
2022-09-25T00:07:04.279Z,15.20
2022-09-25T00:09:31.476Z,13.75
2022-09-25T00:11:58.610Z,13.88
2022-09-25T00:14:25.737Z,14.27
2022-09-25T00:16:52.959Z,14.00
2022-09-25T00:19:41.243Z,16.75
2022-09-25T00:22:08.485Z,15.38
2022-09-25T00:24:35.727Z,17.10
2022-09-25T00:27:02.902Z,14.75
2022-09-25T00:29:30.910Z,16.38
2022-09-25T00:31:58.025Z,16.13
2022-09-25T00:34:25.285Z,18.60
2022-09-25T00:36:52.464Z,17.77
2022-09-25T00:39:19.606Z,17.50
2022-09-25T00:41:46.752Z,17.55
2022-09-25T00:44:32.688Z,18.70
2022-09-25T00:46:59.956Z,17.83
2022-09-25T00:49:27.412Z,16.25
2022-09-25T00:52:00.635Z,15.60
2022-09-25T00:54:30.122Z,15.20
2022-09-25T00:56:57.990Z,19.15
2022-09-25T00:59:29.960Z,15.68
2022-09-25T01:01:57.424Z,15.65
2022-09-25T01:04:25.220Z,15.88
2022-09-25T01:06:52.857Z,19.17
2022-09-25T01:09:20.038Z,16.80
2022-09-25T01:11:47.783Z,16.85
2022-09-25T01:14:17.213Z,15.00
2022-09-25T01:16:58.078Z,17.75
2022-09-25T01:19:44.048Z,19.85
2022-09-25T01:22:26.529Z,18.75
2022-09-25T01:25:11.987Z,18.35
2022-09-25T01:27:39.237Z,19.63
2022-09-25T01:30:06.447Z,17.58
2022-09-25T01:32:53.838Z,21.15
2022-09-25T01:35:37.540Z,21.17
2022-09-25T01:38:26.913Z,21.27
2022-09-25T01:40:54.108Z,15.02
2022-09-25T01:43:26.893Z,17.45
2022-09-25T01:48:23.831Z,16.65
2022-09-25T01:50:56.827Z,18.08
2022-09-25T01:53:27.852Z,16.55
2022-09-25T01:56:02.235Z,19.02
2022-09-25T01:58:39.503Z,16.10
2022-09-25T02:01:26.932Z,15.85
2022-09-25T02:04:04.316Z,19.35
2022-09-25T02:06:33.016Z,16.67
2022-09-25T02:09:29.701Z,18.00
2022-09-25T02:11:58.996Z,18.08
2022-09-25T02:14:46.576Z,16.67
2022-09-25T02:17:35.397Z,15.20
2022-09-25T02:20:21.308Z,14.32
2022-09-25T02:22:50.347Z,12.65
2022-09-25T02:25:21.387Z,12.00
2022-09-25T02:27:48.543Z,11.68
2022-09-25T02:30:16.301Z,10.35
2022-09-25T02:32:43.487Z,9.05
2022-09-25T02:35:10.660Z,9.50
2022-09-25T02:37:37.851Z,8.75
2022-09-25T02:40:05.377Z,8.65
2022-09-25T02:42:41.848Z,8.27
2022-09-25T02:45:27.840Z,9.07
2022-09-25T02:48:07.262Z,8.73
2022-09-25T02:50:52.434Z,8.60
2022-09-25T02:53:24.709Z,8.30
2022-09-25T02:56:06.588Z,8.43
2022-09-25T02:58:52.241Z,8.82
2022-09-25T03:01:21.143Z,8.57
2022-09-25T03:03:50.378Z,7.80
2022-09-25T03:06:17.964Z,7.53
2022-09-25T03:08:47.010Z,8.02
2022-09-25T03:11:15.818Z,7.85
2022-09-25T03:13:43.760Z,7.97
2022-09-25T03:16:20.190Z,8.55
2022-09-25T03:18:48.146Z,7.82
2022-09-25T03:21:15.347Z,7.60
2022-09-25T03:23:42.484Z,8.88
2022-09-25T03:26:09.682Z,10.40
2022-09-25T03:28:36.978Z,9.30
2022-09-25T03:31:08.290Z,10.40
2022-09-25T03:33:36.949Z,9.82
2022-09-25T03:36:04.095Z,11.23
2022-09-25T03:38:31.189Z,9.90
2022-09-25T03:40:58.391Z,11.10
2022-09-25T03:43:28.269Z,11.52
2022-09-25T03:45:55.732Z,13.57
2022-09-25T03:48:22.960Z,12.13
2022-09-25T03:50:50.474Z,11.68
2022-09-25T03:53:18.386Z,11.65
2022-09-25T03:55:49.485Z,10.77
2022-09-25T03:58:17.011Z,10.85
2022-09-25T04:00:45.874Z,11.05
2022-09-25T04:03:13.511Z,10.30
2022-09-25T04:05:41.380Z,11.40
2022-09-25T04:08:08.716Z,10.80
2022-09-25T04:10:40.228Z,7.68
2022-09-25T04:13:07.380Z,7.78
2022-09-25T04:15:34.693Z,8.45
2022-09-25T04:18:05.929Z,8.05
2022-09-25T04:20:33.726Z,7.00
2022-09-25T04:23:00.915Z,6.65
2022-09-25T04:25:28.379Z,5.95
2022-09-25T04:27:55.935Z,6.60
2022-09-25T04:30:26.969Z,6.95
2022-09-25T04:33:13.309Z,6.03
2022-09-25T04:35:41.357Z,5.80
2022-09-25T04:38:09.712Z,6.45
2022-09-25T04:40:37.279Z,6.05
2022-09-25T04:43:05.273Z,5.20
2022-09-25T04:45:34.093Z,6.78
2022-09-25T04:48:01.801Z,6.00
2022-09-25T04:50:29.602Z,5.65
2022-09-25T04:53:00.470Z,6.13
2022-09-25T04:55:28.095Z,5.70
2022-09-25T04:57:59.335Z,7.97
2022-09-25T05:00:28.911Z,6.28
2022-09-25T05:02:58.932Z,5.85
2022-09-25T05:05:28.094Z,6.03
2022-09-25T05:07:59.268Z,6.07
2022-09-25T05:10:27.737Z,5.90
2022-09-25T05:12:58.965Z,6.20
2022-09-25T05:15:26.565Z,6.43
2022-09-25T05:18:00.490Z,6.35
2022-09-25T05:20:27.736Z,6.65
2022-09-25T05:22:56.257Z,6.13
2022-09-25T05:25:25.339Z,6.55
2022-09-25T05:27:58.118Z,6.35
2022-09-25T05:30:25.760Z,6.60
2022-09-25T05:32:53.499Z,7.35
2022-09-25T05:35:21.774Z,6.05
2022-09-25T05:37:48.979Z,6.82
2022-09-25T05:40:16.332Z,6.13
2022-09-25T05:42:47.837Z,6.32
2022-09-25T05:45:15.399Z,7.20
2022-09-25T05:47:43.498Z,7.40
2022-09-25T05:50:13.276Z,7.57
2022-09-25T05:52:40.682Z,6.85
2022-09-25T05:55:08.511Z,6.43
2022-09-25T05:57:36.363Z,5.85
2022-09-25T06:03:44.294Z,6.22
2022-09-25T06:06:11.482Z,6.80
2022-09-25T06:08:38.654Z,6.30
2022-09-25T06:11:06.196Z,6.88
2022-09-25T06:13:34.860Z,6.35
2022-09-25T06:16:02.649Z,6.82
2022-09-25T06:18:29.871Z,6.47
2022-09-25T06:21:04.187Z,7.40
2022-09-25T06:23:31.506Z,6.47
2022-09-25T06:26:02.995Z,7.00
2022-09-25T06:28:30.973Z,7.28
2022-09-25T06:31:01.064Z,7.15
2022-09-25T06:33:28.247Z,7.18
2022-09-25T06:35:55.385Z,7.55
2022-09-25T06:38:22.684Z,8.38
2022-09-25T06:40:50.412Z,9.05
2022-09-25T06:43:17.629Z,8.27
2022-09-25T06:45:46.763Z,7.45
2022-09-25T06:48:15.692Z,6.72
2022-09-25T06:50:44.593Z,6.80
2022-09-25T06:53:12.033Z,7.18
2022-09-25T06:55:39.365Z,6.78
2022-09-25T06:58:08.300Z,7.50
2022-09-25T07:00:35.729Z,7.10
2022-09-25T07:03:21.509Z,7.47
2022-09-25T07:05:48.894Z,7.60
2022-09-25T07:08:18.098Z,7.05
2022-09-25T07:10:49.259Z,6.05
2022-09-25T07:13:17.456Z,7.53
2022-09-25T07:15:44.854Z,8.38
2022-09-25T07:18:12.010Z,8.05
2022-09-25T07:20:39.172Z,7.72
2022-09-25T07:23:06.355Z,8.10
2022-09-25T07:25:33.675Z,8.00
2022-09-25T07:28:01.011Z,10.93
2022-09-25T07:30:29.549Z,9.05
2022-09-25T07:33:00.122Z,9.80
2022-09-25T07:35:27.472Z,8.75
2022-09-25T07:37:58.447Z,8.93
2022-09-25T07:40:29.357Z,9.75
2022-09-25T07:43:00.205Z,10.93
2022-09-25T07:45:27.605Z,11.38
2022-09-25T07:47:58.612Z,10.70
2022-09-25T07:50:25.819Z,11.32
2022-09-25T07:52:53.621Z,10.73
2022-09-25T07:55:20.929Z,10.40
2022-09-25T07:57:49.041Z,10.00
2022-09-25T08:00:16.212Z,9.32
2022-09-25T08:02:43.437Z,9.25
2022-09-25T08:05:11.748Z,9.70
2022-09-25T08:07:38.968Z,8.38
2022-09-25T08:10:06.610Z,8.38
2022-09-25T08:12:33.724Z,9.23
2022-09-25T08:15:00.842Z,7.45
2022-09-25T08:17:31.194Z,8.13
2022-09-25T08:19:58.362Z,7.40
2022-09-25T08:22:25.642Z,6.97
2022-09-25T08:24:52.828Z,6.90
2022-09-25T08:27:20.083Z,7.40
2022-09-25T08:29:47.239Z,7.25
2022-09-25T08:32:14.431Z,6.80
2022-09-25T08:34:42.492Z,7.25
2022-09-25T08:37:10.558Z,6.75
2022-09-25T08:39:37.772Z,7.57
2022-09-25T08:42:05.538Z,6.43
2022-09-25T08:44:32.691Z,7.15
2022-09-25T14:57:40.731Z,3.92
2022-09-25T15:00:19.675Z,4.07
2022-09-25T15:03:21.645Z,4.55
2022-09-25T15:05:59.173Z,3.90
2022-09-25T15:08:39.682Z,4.30
2022-09-25T15:11:41.418Z,4.65
2022-09-25T15:14:20.011Z,3.78
2022-09-25T15:41:23.185Z,3.47
2022-09-25T15:48:05.162Z,3.10
2022-09-25T15:51:01.224Z,3.00
2022-09-25T15:53:50.464Z,2.65
2022-09-25T15:56:36.125Z,3.20
2022-09-25T16:02:21.763Z,2.60
2022-09-25T16:05:12.687Z,3.25
2022-09-25T16:08:01.234Z,5.25
2022-09-25T16:10:33.301Z,3.97
2022-09-25T16:16:11.915Z,4.85
2022-09-25T16:19:09.250Z,12.40
2022-09-25T16:21:49.944Z,7.68
2022-09-25T16:24:33.959Z,4.50
2022-09-25T16:27:18.525Z,3.80
2022-09-25T16:29:52.913Z,3.28
2022-09-25T16:32:34.436Z,3.85
2022-09-25T16:35:11.072Z,3.80
2022-09-25T16:44:00.259Z,5.53
2022-09-25T16:46:26.593Z,5.38
2022-09-25T16:49:12.966Z,4.90
2022-09-25T16:51:48.681Z,4.20
2022-09-25T16:54:25.255Z,3.65
2022-09-25T16:57:08.828Z,3.35
2022-09-25T16:59:41.738Z,3.90
2022-09-25T17:02:28.558Z,4.78
2022-09-25T17:05:03.265Z,4.05
2022-09-25T17:07:37.059Z,4.68
2022-09-25T17:10:11.835Z,8.30
2022-09-25T17:12:54.255Z,4.82
2022-09-25T17:15:38.394Z,4.55
2022-09-25T17:18:26.558Z,6.30
2022-09-25T17:21:02.616Z,6.43
2022-09-25T17:23:45.182Z,7.07
2022-09-25T17:30:06.705Z,5.35
2022-09-25T17:47:58.004Z,7.82
2022-09-25T17:50:53.217Z,6.22
2022-09-25T17:53:43.804Z,7.32
2022-09-25T17:56:25.632Z,6.60
2022-09-25T17:59:14.528Z,7.00
2022-09-25T18:02:12.108Z,6.55
2022-09-25T18:05:25.177Z,6.13
2022-09-25T18:24:18.269Z,7.53
2022-09-25T18:26:45.750Z,5.97
2022-09-25T18:29:16.951Z,5.55
2022-09-25T18:31:44.614Z,4.95
2022-09-25T18:34:11.778Z,5.15
2022-09-25T18:36:38.985Z,5.45
2022-09-25T18:41:38.352Z,5.93
2022-09-25T18:44:09.227Z,6.15
2022-09-25T18:46:39.889Z,6.80
2022-09-25T18:49:07.570Z,5.53
2022-09-25T18:51:35.211Z,5.78
2022-09-25T18:54:04.681Z,5.72
2022-09-25T18:56:34.441Z,5.95
2022-09-25T18:59:04.357Z,5.35
2022-09-25T19:01:32.015Z,4.45
2022-09-25T19:03:59.226Z,4.13
2022-09-25T19:06:26.415Z,4.13
2022-09-25T19:08:54.591Z,5.00
2022-09-25T19:11:22.284Z,4.35
2022-09-25T19:13:50.041Z,4.68
2022-09-25T19:16:18.060Z,4.93
2022-09-25T19:18:48.179Z,4.85
2022-09-25T19:21:16.568Z,5.25
2022-09-25T19:23:44.526Z,5.53
2022-09-25T19:26:16.144Z,5.82
2022-09-25T19:28:46.020Z,5.63
2022-09-25T19:31:25.937Z,6.45
2022-09-25T19:33:53.687Z,6.53
2022-09-25T19:36:25.249Z,6.38
2022-09-25T19:38:52.876Z,5.97
2022-09-25T19:41:26.300Z,5.85
2022-09-25T19:43:54.486Z,5.85
2022-09-25T19:46:21.830Z,4.90
2022-09-25T19:48:49.321Z,5.10
2022-09-25T19:51:17.885Z,4.80
2022-09-25T19:53:46.112Z,6.38
2022-09-25T19:56:19.267Z,4.90
2022-09-25T19:58:50.807Z,4.72
2022-09-25T20:01:27.779Z,5.35
2022-09-25T20:03:56.611Z,5.82
2022-09-25T20:06:24.552Z,6.25
2022-09-25T20:08:56.910Z,5.70
2022-09-25T20:11:24.789Z,8.02
2022-09-25T20:13:52.794Z,7.80
2022-09-25T20:16:21.627Z,7.70
2022-09-25T20:18:50.155Z,7.43
2022-09-25T20:21:26.241Z,5.88
2022-09-25T20:23:54.295Z,5.43
2022-09-25T20:26:23.109Z,5.07
2022-09-25T20:28:58.184Z,5.65
2022-09-25T20:31:26.309Z,6.35
2022-09-25T20:33:54.170Z,5.97
2022-09-25T20:36:21.831Z,7.00
2022-09-25T20:38:52.969Z,5.57
2022-09-25T20:41:20.479Z,5.03
2022-09-25T20:43:51.659Z,5.43
2022-09-25T20:46:20.248Z,5.35
2022-09-25T20:48:48.588Z,5.78
2022-09-25T20:51:17.015Z,5.95
2022-09-25T20:53:45.331Z,5.93
2022-09-25T20:56:13.556Z,5.82
2022-09-25T20:58:42.247Z,5.40
2022-09-25T21:01:11.406Z,5.47
2022-09-25T21:03:39.741Z,5.88
2022-09-25T21:06:08.874Z,5.22
2022-09-25T21:08:36.490Z,5.70
2022-09-25T21:11:04.002Z,6.05
2022-09-25T21:13:32.484Z,5.90
2022-09-25T21:16:10.830Z,5.90
2022-09-25T21:18:40.611Z,5.90
2022-09-25T21:21:09.043Z,5.90
2022-09-25T21:23:36.858Z,5.82
2022-09-25T21:26:05.069Z,6.63
2022-09-25T21:28:32.619Z,6.82
2022-09-25T21:31:06.872Z,6.95
2022-09-25T21:33:34.445Z,7.53
2022-09-25T21:36:01.986Z,7.28
2022-09-25T21:38:29.478Z,7.63
2022-09-25T21:41:06.893Z,7.53
2022-09-25T21:43:37.388Z,7.97
2022-09-25T21:46:09.150Z,7.85
2022-09-25T21:48:37.283Z,10.63
2022-09-25T21:51:05.206Z,9.38
2022-09-25T21:53:33.815Z,10.10
2022-09-25T21:56:07.005Z,10.32
2022-09-25T21:58:34.671Z,8.68
2022-09-25T22:01:08.083Z,9.85
2022-09-25T22:03:36.113Z,8.20
2022-09-25T22:06:04.554Z,7.78
2022-09-25T22:08:32.735Z,7.70
2022-09-25T22:11:00.553Z,7.35
2022-09-25T22:13:28.898Z,8.90
2022-09-25T22:16:00.314Z,8.07
2022-09-25T22:18:27.696Z,7.97
2022-09-25T22:20:55.268Z,8.25
2022-09-25T22:23:23.838Z,7.82
2022-09-25T22:25:51.817Z,7.88
2022-09-25T22:28:20.034Z,7.90
2022-09-25T22:30:47.641Z,7.72
2022-09-25T22:33:15.313Z,8.63
2022-09-25T22:35:42.871Z,9.55
2022-09-25T22:38:10.041Z,8.40
2022-09-25T22:40:41.139Z,9.57
2022-09-25T22:43:08.366Z,9.13
2022-09-25T22:45:35.540Z,8.35
2022-09-25T22:48:02.762Z,8.95
2022-09-25T22:50:29.933Z,7.95
2022-09-25T22:52:58.530Z,9.35
2022-09-25T22:55:26.417Z,9.02
2022-09-25T22:57:53.580Z,9.70
2022-09-25T23:00:20.737Z,8.35
2022-09-25T23:02:48.156Z,8.95
2022-09-25T23:05:15.498Z,8.40
2022-09-25T23:07:43.015Z,8.98
2022-09-25T23:10:10.305Z,8.80
2022-09-25T23:12:37.433Z,10.32
2022-09-25T23:15:04.872Z,10.32
2022-09-25T23:17:32.086Z,10.35
2022-09-25T23:19:59.858Z,10.52
2022-09-25T23:22:27.646Z,10.82
2022-09-25T23:24:54.849Z,10.45
2022-09-25T23:27:21.965Z,11.65
2022-09-25T23:29:49.088Z,10.38
2022-09-25T23:32:16.369Z,9.80
2022-09-25T23:34:43.452Z,9.65
2022-09-25T23:37:10.639Z,10.02
2022-09-25T23:39:37.902Z,10.85
2022-09-25T23:42:05.082Z,8.85
2022-09-25T23:44:32.229Z,10.13
2022-09-25T23:46:59.628Z,10.88
2022-09-25T23:49:26.716Z,9.48
2022-09-25T23:51:54.348Z,8.93
2022-09-25T23:54:21.485Z,9.82
2022-09-25T23:56:48.670Z,10.25
2022-09-25T23:59:16.040Z,10.02
